createdAt,value
2018-03-25T00:02:18.648Z,16.93
2018-03-25T00:04:46.183Z,15.97
2018-03-25T00:07:13.703Z,15.97
2018-03-25T00:09:41.228Z,19.50
2018-03-25T00:12:08.742Z,14.97
2018-03-25T00:14:36.315Z,17.57
2018-03-25T00:17:03.994Z,16.83
2018-03-25T00:19:31.627Z,17.57
2018-03-25T00:22:00.078Z,18.17
2018-03-25T00:24:27.618Z,15.53
2018-03-25T00:26:55.152Z,17.07
2018-03-25T00:29:23.467Z,15.87
2018-03-25T00:31:51.184Z,17.73
2018-03-25T00:34:18.785Z,16.33
2018-03-25T00:36:46.303Z,17.20
2018-03-25T00:39:13.825Z,17.20
2018-03-25T00:41:41.365Z,18.80
2018-03-25T00:44:08.872Z,16.10
2018-03-25T00:46:37.211Z,20.03
2018-03-25T00:49:04.847Z,19.40
2018-03-25T00:51:32.490Z,18.90
2018-03-25T00:54:00.215Z,16.77
2018-03-25T00:56:27.832Z,18.63
2018-03-25T00:58:55.427Z,16.37
2018-03-25T01:01:22.967Z,15.90
2018-03-25T01:03:51.420Z,17.90
2018-03-25T01:06:18.977Z,17.43
2018-03-25T01:08:46.505Z,15.03
2018-03-25T01:11:14.043Z,16.50
2018-03-25T01:13:41.557Z,18.10
2018-03-25T01:16:09.989Z,18.57
2018-03-25T01:18:37.498Z,18.93
2018-03-25T01:21:05.092Z,16.20
2018-03-25T01:23:32.782Z,19.50
2018-03-25T01:26:01.294Z,19.03
2018-03-25T01:28:29.090Z,18.80
2018-03-25T01:30:56.622Z,23.03
2018-03-25T01:33:24.924Z,16.70
2018-03-25T01:35:53.250Z,19.73
2018-03-25T01:38:20.846Z,20.93
2018-03-25T01:40:49.248Z,19.27
2018-03-25T01:43:17.440Z,16.40
2018-03-25T01:45:45.775Z,18.77
2018-03-25T01:48:13.306Z,17.90
2018-03-25T01:50:41.600Z,17.63
2018-03-25T01:53:10.199Z,18.33
2018-03-25T01:55:38.473Z,19.30
2018-03-25T01:58:06.092Z,19.53
2018-03-25T02:00:33.716Z,17.93
2018-03-25T02:03:01.349Z,20.57
2018-03-25T02:05:30.171Z,18.83
2018-03-25T02:07:58.595Z,20.57
2018-03-25T02:10:26.151Z,18.00
2018-03-25T02:12:54.456Z,19.13
2018-03-25T02:15:22.856Z,18.17
2018-03-25T02:17:51.056Z,19.97
2018-03-25T02:20:18.582Z,20.87
2018-03-25T02:22:46.120Z,18.67
2018-03-25T02:25:13.642Z,18.43
2018-03-25T02:27:41.947Z,19.17
2018-03-25T02:30:09.459Z,21.57
2018-03-25T02:32:37.190Z,19.40
2018-03-25T02:35:04.810Z,18.73
2018-03-25T02:37:32.406Z,18.50
2018-03-25T02:40:00.148Z,17.63
2018-03-25T02:42:27.715Z,17.40
2018-03-25T02:44:55.245Z,19.13
2018-03-25T02:47:23.558Z,19.07
2018-03-25T02:49:51.299Z,16.93
2018-03-25T02:52:18.961Z,22.43
2018-03-25T02:54:47.255Z,20.70
2018-03-25T02:57:14.774Z,19.63
2018-03-25T02:59:42.317Z,17.33
2018-03-25T03:02:10.602Z,20.23
2018-03-25T03:04:38.907Z,21.97
2018-03-25T03:07:06.560Z,19.17
2018-03-25T03:09:34.910Z,19.23
2018-03-25T03:12:03.280Z,22.03
2018-03-25T03:14:30.919Z,20.03
2018-03-25T03:16:59.733Z,19.10
2018-03-25T03:19:27.278Z,21.20
2018-03-25T03:21:55.555Z,18.97
2018-03-25T03:24:23.184Z,20.47
2018-03-25T03:26:50.807Z,18.63
2018-03-25T03:29:18.646Z,20.07
2018-03-25T03:31:46.161Z,21.87
2018-03-25T03:34:14.435Z,19.10
2018-03-25T03:36:41.983Z,19.23
2018-03-25T03:39:09.514Z,20.10
2018-03-25T03:41:37.138Z,20.53
2018-03-25T03:44:05.512Z,19.30
2018-03-25T03:46:33.863Z,21.17
2018-03-25T03:49:01.762Z,21.23
2018-03-25T03:51:29.288Z,20.93
2018-03-25T03:53:57.644Z,21.67
2018-03-25T03:56:25.259Z,21.73
2018-03-25T03:58:53.555Z,21.53
2018-03-25T04:01:21.151Z,24.30
2018-03-25T04:03:48.678Z,21.33
2018-03-25T04:06:17.002Z,20.47
2018-03-25T04:08:44.511Z,19.73
2018-03-25T04:11:12.788Z,23.70
2018-03-25T04:13:40.334Z,20.13
2018-03-25T04:16:07.852Z,21.73
2018-03-25T04:18:35.463Z,22.47
2018-03-25T04:21:03.152Z,19.20
2018-03-25T04:23:30.722Z,22.20
2018-03-25T04:25:58.375Z,19.27
2018-03-25T04:28:25.906Z,21.00
2018-03-25T04:30:53.481Z,21.07
2018-03-25T04:33:21.174Z,21.53
2018-03-25T04:35:48.741Z,22.07
2018-03-25T04:38:16.322Z,19.97
2018-03-25T04:40:43.840Z,21.83
2018-03-25T04:43:11.407Z,21.53
2018-03-25T04:45:38.919Z,21.67
2018-03-25T04:48:06.513Z,21.17
2018-03-25T04:50:34.958Z,19.93
2018-03-25T04:53:03.034Z,22.43
2018-03-25T04:55:30.799Z,21.77
2018-03-25T04:57:58.396Z,19.67
2018-03-25T05:00:25.971Z,22.20
2018-03-25T05:02:53.496Z,20.30
2018-03-25T05:05:21.902Z,22.30
2018-03-25T05:07:49.518Z,22.67
2018-03-25T05:10:17.120Z,22.17
2018-03-25T05:12:45.416Z,22.17
2018-03-25T05:15:12.929Z,22.00
2018-03-25T05:17:40.465Z,22.60
2018-03-25T05:20:07.987Z,22.30
2018-03-25T05:22:35.812Z,25.57
2018-03-25T05:25:03.558Z,26.10
2018-03-25T05:27:31.145Z,25.00
2018-03-25T05:29:59.334Z,22.03
2018-03-25T05:32:26.887Z,22.10
2018-03-25T05:34:54.525Z,24.07
2018-03-25T05:37:22.291Z,21.57
2018-03-25T05:39:50.157Z,24.10
2018-03-25T05:42:17.713Z,23.00
2018-03-25T05:44:45.989Z,25.33
2018-03-25T05:47:14.304Z,25.13
2018-03-25T05:49:41.828Z,26.93
2018-03-25T05:52:09.376Z,24.10
2018-03-25T05:54:36.952Z,22.00
2018-03-25T05:57:04.622Z,24.27
2018-03-25T05:59:32.275Z,26.07
2018-03-25T06:02:00.048Z,25.50
2018-03-25T06:04:28.553Z,25.37
2018-03-25T06:06:56.893Z,26.23
2018-03-25T06:09:25.204Z,22.47
2018-03-25T06:11:52.764Z,21.60
2018-03-25T06:14:21.089Z,21.90
2018-03-25T06:16:48.665Z,24.60
2018-03-25T06:19:16.195Z,24.57
2018-03-25T06:21:44.487Z,24.03
2018-03-25T06:24:12.777Z,24.53
2018-03-25T06:26:41.320Z,24.87
2018-03-25T06:29:09.113Z,26.23
2018-03-25T06:31:36.786Z,27.63
2018-03-25T06:34:05.003Z,25.93
2018-03-25T06:36:33.392Z,24.70
2018-03-25T06:39:01.220Z,22.83
2018-03-25T06:41:29.022Z,24.40
2018-03-25T06:43:57.445Z,22.17
2018-03-25T06:46:25.048Z,25.03
2018-03-25T06:48:52.820Z,22.20
2018-03-25T06:51:20.443Z,22.53
2018-03-25T06:53:48.009Z,19.90
2018-03-25T06:56:15.539Z,22.30
2018-03-25T06:58:43.060Z,22.20
2018-03-25T07:01:11.367Z,21.23
2018-03-25T07:03:38.883Z,19.03
2018-03-25T07:06:06.407Z,21.63
2018-03-25T07:08:34.026Z,19.23
2018-03-25T07:11:01.645Z,20.37
2018-03-25T07:13:29.348Z,20.27
2018-03-25T07:15:56.859Z,19.03
2018-03-25T07:18:24.404Z,20.23
2018-03-25T07:20:51.998Z,20.27
2018-03-25T07:23:19.567Z,19.30
2018-03-25T07:25:47.119Z,18.63
2018-03-25T07:28:14.628Z,20.30
2018-03-25T07:30:42.165Z,17.77
2018-03-25T07:33:09.672Z,18.93
2018-03-25T07:35:37.971Z,19.73
2018-03-25T07:38:06.929Z,21.47
2018-03-25T07:40:34.822Z,19.27
2018-03-25T07:43:02.509Z,19.23
2018-03-25T07:45:30.319Z,19.83
2018-03-25T07:47:57.918Z,17.50
2018-03-25T07:50:25.516Z,18.13
2018-03-25T07:52:55.115Z,18.73
2018-03-25T07:55:22.631Z,18.63
2018-03-25T07:57:50.224Z,18.87
2018-03-25T08:00:17.817Z,18.93
2018-03-25T08:02:45.324Z,20.03
2018-03-25T08:05:12.868Z,18.60
2018-03-25T08:07:40.379Z,20.00
2018-03-25T08:10:07.951Z,19.20
2018-03-25T08:12:35.560Z,20.17
2018-03-25T08:15:03.152Z,18.60
2018-03-25T08:17:30.843Z,18.70
2018-03-25T08:19:58.575Z,17.70
2018-03-25T08:22:26.131Z,20.10
2018-03-25T08:24:54.411Z,18.17
2018-03-25T08:27:21.955Z,20.07
2018-03-25T08:29:49.596Z,21.57
2018-03-25T08:32:17.111Z,18.20
2018-03-25T08:34:44.656Z,19.00
2018-03-25T08:37:12.180Z,19.33
2018-03-25T08:39:41.135Z,18.50
2018-03-25T08:42:08.659Z,20.17
2018-03-25T08:44:36.199Z,19.03
2018-03-25T08:47:03.837Z,17.27
2018-03-25T08:49:31.525Z,17.83
2018-03-25T08:51:59.299Z,20.03
2018-03-25T08:54:26.835Z,19.57
2018-03-25T08:56:54.392Z,17.27
2018-03-25T08:59:21.961Z,19.67
2018-03-25T09:01:49.657Z,19.47
2018-03-25T09:04:17.204Z,18.73
2018-03-25T09:06:44.731Z,19.83
2018-03-25T09:09:12.303Z,19.87
2018-03-25T09:11:39.823Z,18.93
2018-03-25T09:14:08.139Z,19.47
2018-03-25T09:16:35.875Z,20.40
2018-03-25T09:19:04.300Z,20.20
2018-03-25T09:21:32.036Z,19.30
2018-03-25T09:23:59.754Z,18.43
2018-03-25T09:26:27.307Z,19.97
2018-03-25T09:28:54.832Z,18.30
2018-03-25T09:31:22.377Z,22.00
2018-03-25T09:33:50.038Z,20.00
2018-03-25T09:36:17.589Z,19.33
2018-03-25T09:38:45.124Z,19.63
2018-03-25T09:41:12.664Z,19.20
2018-03-25T09:43:40.200Z,22.10
2018-03-25T09:46:07.728Z,20.57
2018-03-25T09:48:35.420Z,20.67
2018-03-25T09:51:03.101Z,17.90
2018-03-25T09:53:31.675Z,21.30
2018-03-25T09:55:59.434Z,19.50
2018-03-25T09:58:27.033Z,19.33
2018-03-25T10:01:00.131Z,23.47
2018-03-25T10:03:30.812Z,21.57
2018-03-25T10:05:58.873Z,20.27
2018-03-25T10:08:26.430Z,20.20
2018-03-25T10:10:53.993Z,22.53
2018-03-25T10:13:21.586Z,19.40
2018-03-25T10:15:49.150Z,21.27
2018-03-25T10:18:16.720Z,21.53
2018-03-25T10:20:44.235Z,23.43
2018-03-25T10:23:11.771Z,21.43
2018-03-25T10:25:40.170Z,22.67
2018-03-25T10:28:08.475Z,23.83
2018-03-25T10:30:36.047Z,20.00
2018-03-25T10:33:03.960Z,20.63
2018-03-25T10:35:31.736Z,21.17
2018-03-25T10:38:00.293Z,22.97
2018-03-25T10:40:27.863Z,22.90
2018-03-25T10:42:55.391Z,25.40
2018-03-25T10:45:22.930Z,22.93
2018-03-25T10:47:51.055Z,23.37
2018-03-25T10:50:18.739Z,23.00
2018-03-25T10:52:46.296Z,21.67
2018-03-25T10:55:13.828Z,22.80
2018-03-25T10:57:41.380Z,21.80
2018-03-25T11:00:08.892Z,21.13
2018-03-25T11:02:36.448Z,21.27
2018-03-25T11:05:04.076Z,20.63
2018-03-25T11:07:32.597Z,20.60
2018-03-25T11:10:00.428Z,23.07
2018-03-25T11:12:28.086Z,20.90
2018-03-25T11:14:55.932Z,21.67
2018-03-25T11:17:23.461Z,19.77
2018-03-25T11:19:51.831Z,23.03
2018-03-25T11:22:19.477Z,20.53
2018-03-25T11:24:47.775Z,22.47
2018-03-25T11:27:15.326Z,21.67
2018-03-25T11:29:42.845Z,20.83
2018-03-25T11:32:10.395Z,20.20
2018-03-25T11:34:37.956Z,22.93
2018-03-25T11:37:06.160Z,22.03
2018-03-25T11:39:33.709Z,22.47
2018-03-25T11:42:01.599Z,20.27
2018-03-25T11:44:29.281Z,19.27
2018-03-25T11:46:56.800Z,19.73
2018-03-25T11:49:24.347Z,20.53
2018-03-25T11:51:52.041Z,19.93
2018-03-25T11:54:20.576Z,21.17
2018-03-25T11:56:48.123Z,20.77
2018-03-25T11:59:15.658Z,19.60
2018-03-25T12:01:43.176Z,21.43
2018-03-25T12:04:10.711Z,21.73
2018-03-25T12:06:38.991Z,19.97
2018-03-25T12:09:07.344Z,22.27
2018-03-25T12:11:34.910Z,20.17
2018-03-25T12:14:02.501Z,20.20
2018-03-25T12:16:30.942Z,20.00
2018-03-25T12:18:58.770Z,21.17
2018-03-25T12:21:26.316Z,20.70
2018-03-25T12:23:53.848Z,20.97
2018-03-25T12:26:21.399Z,17.90
2018-03-25T12:28:49.732Z,20.43
2018-03-25T12:31:17.290Z,21.03
2018-03-25T12:33:45.184Z,21.53
2018-03-25T12:36:12.720Z,19.53
2018-03-25T12:38:42.025Z,18.17
2018-03-25T12:41:09.582Z,20.20
2018-03-25T12:43:37.119Z,18.27
2018-03-25T12:46:04.916Z,18.83
2018-03-25T12:48:33.912Z,18.77
2018-03-25T12:51:02.405Z,19.90
2018-03-25T12:53:30.089Z,18.27
2018-03-25T12:55:58.884Z,18.48
2018-03-25T12:58:27.259Z,18.07
2018-03-25T13:00:55.264Z,20.53
2018-03-25T13:03:22.796Z,18.27
2018-03-25T13:05:50.320Z,19.07
2018-03-25T13:08:17.869Z,16.97
2018-03-25T13:10:45.400Z,18.23
2018-03-25T13:13:12.933Z,19.10
2018-03-25T13:15:40.471Z,19.53
2018-03-25T13:18:08.027Z,18.37
2018-03-25T13:20:36.378Z,17.90
2018-03-25T13:23:05.089Z,19.33
2018-03-25T13:25:32.789Z,17.20
2018-03-25T13:28:00.381Z,18.27
2018-03-25T13:30:27.966Z,19.33
2018-03-25T13:32:56.396Z,17.53
2018-03-25T13:35:24.707Z,17.20
2018-03-25T13:37:52.269Z,18.07
2018-03-25T13:40:19.882Z,18.20
2018-03-25T13:42:47.449Z,20.80
2018-03-25T13:45:14.968Z,18.77
2018-03-25T13:47:43.267Z,18.57
2018-03-25T13:50:10.794Z,19.13
2018-03-25T13:52:38.340Z,20.57
2018-03-25T13:55:05.862Z,17.77
2018-03-25T13:57:34.295Z,19.87
2018-03-25T14:00:01.955Z,20.17
2018-03-25T14:02:29.588Z,18.90
2018-03-25T14:04:57.926Z,19.07
2018-03-25T14:07:25.492Z,18.30
2018-03-25T14:09:53.050Z,17.90
2018-03-25T14:12:20.598Z,16.93
2018-03-25T14:14:48.110Z,20.43
2018-03-25T14:17:15.655Z,16.57
2018-03-25T14:19:43.936Z,17.67
2018-03-25T14:22:12.235Z,17.60
2018-03-25T14:24:39.776Z,18.27
2018-03-25T14:27:07.312Z,20.70
2018-03-25T14:29:34.869Z,18.73
2018-03-25T14:32:03.021Z,18.47
2018-03-25T14:34:30.891Z,20.87
2018-03-25T14:37:00.228Z,20.83
2018-03-25T14:39:27.788Z,20.97
2018-03-25T14:41:56.080Z,20.77
2018-03-25T14:44:24.449Z,21.47
2018-03-25T14:46:51.975Z,22.00
2018-03-25T14:49:19.568Z,20.50
2018-03-25T14:51:47.108Z,22.60
2018-03-25T14:54:14.654Z,20.30
2018-03-25T14:56:42.939Z,20.43
2018-03-25T14:59:11.248Z,21.90
2018-03-25T15:01:38.796Z,21.87
2018-03-25T15:04:07.103Z,20.77
2018-03-25T15:06:34.800Z,21.30
2018-03-25T15:09:02.511Z,21.47
2018-03-25T15:11:30.225Z,22.77
2018-03-25T15:13:57.760Z,22.07
2018-03-25T15:16:25.360Z,23.20
2018-03-25T15:18:52.889Z,22.43
2018-03-25T15:21:20.459Z,22.20
2018-03-25T15:23:48.116Z,22.93
2018-03-25T15:26:15.667Z,22.37
2018-03-25T15:28:43.190Z,24.37
2018-03-25T15:31:10.721Z,21.67
2018-03-25T15:33:38.285Z,23.57
2018-03-25T15:36:05.892Z,24.17
2018-03-25T15:38:33.550Z,25.07
2018-03-25T15:41:01.121Z,26.43
2018-03-25T15:43:28.760Z,22.40
2018-03-25T15:45:56.308Z,26.80
2018-03-25T15:48:24.623Z,24.57
2018-03-25T15:50:52.167Z,24.67
2018-03-25T15:53:19.741Z,23.17
2018-03-25T15:55:48.040Z,22.33
2018-03-25T15:58:15.576Z,22.90
2018-03-25T16:00:43.138Z,24.00
2018-03-25T16:03:10.664Z,24.53
2018-03-25T16:05:38.279Z,24.17
2018-03-25T16:08:05.846Z,24.93
2018-03-25T16:10:33.479Z,25.37
2018-03-25T16:13:03.981Z,22.10
2018-03-25T16:15:32.336Z,21.90
2018-03-25T16:17:59.921Z,24.50
2018-03-25T16:20:28.294Z,24.57
2018-03-25T16:22:55.827Z,23.97
2018-03-25T16:25:23.371Z,24.07
2018-03-25T16:27:51.131Z,24.73
2018-03-25T16:30:19.558Z,26.40
2018-03-25T16:32:47.880Z,26.73
2018-03-25T16:35:15.439Z,27.53
2018-03-25T16:37:42.969Z,28.23
2018-03-25T16:40:10.508Z,28.80
2018-03-25T16:42:38.024Z,26.63
2018-03-25T16:45:06.917Z,25.50
2018-03-25T16:47:34.563Z,27.60
2018-03-25T16:50:02.195Z,25.40
2018-03-25T16:52:29.891Z,27.87
2018-03-25T16:54:57.441Z,28.83
2018-03-25T16:57:25.016Z,28.17
2018-03-25T16:59:53.173Z,29.40
2018-03-25T17:02:21.488Z,29.33
2018-03-25T17:04:49.087Z,28.57
2018-03-25T17:07:16.630Z,29.53
2018-03-25T17:09:44.162Z,28.83
2018-03-25T17:12:11.696Z,30.83
2018-03-25T17:14:39.224Z,28.63
2018-03-25T17:17:07.536Z,31.27
2018-03-25T17:19:35.159Z,30.00
2018-03-25T17:22:02.845Z,30.27
2018-03-25T17:24:31.988Z,28.80
2018-03-25T17:26:59.579Z,31.33
2018-03-25T17:29:27.344Z,31.70
2018-03-25T17:31:54.860Z,30.43
2018-03-25T17:34:22.436Z,30.07
2018-03-25T17:36:50.203Z,30.40
2018-03-25T17:39:17.772Z,33.43
2018-03-25T17:41:46.600Z,31.23
2018-03-25T17:44:14.912Z,29.37
2018-03-25T17:46:42.455Z,30.83
2018-03-25T17:49:10.031Z,32.37
2018-03-25T17:51:38.317Z,30.23
2018-03-25T17:54:06.636Z,31.17
2018-03-25T17:56:34.248Z,34.90
2018-03-25T17:59:01.911Z,32.50
2018-03-25T18:01:29.555Z,35.07
2018-03-25T18:03:57.083Z,32.70
2018-03-25T18:06:24.647Z,31.90
2018-03-25T18:08:52.206Z,35.23
2018-03-25T18:11:19.882Z,31.83
2018-03-25T18:13:49.696Z,33.43
2018-03-25T18:16:17.232Z,35.67
2018-03-25T18:18:44.744Z,35.93
2018-03-25T18:21:12.296Z,34.43
2018-03-25T18:23:39.803Z,35.63
2018-03-25T18:26:07.362Z,32.60
2018-03-25T18:28:34.950Z,33.00
2018-03-25T18:31:03.319Z,34.47
2018-03-25T18:33:30.989Z,34.43
2018-03-25T18:35:58.738Z,35.00
2018-03-25T18:38:26.279Z,34.17
2018-03-25T18:40:54.559Z,36.17
2018-03-25T18:43:22.863Z,37.50
2018-03-25T18:45:51.253Z,35.70
2018-03-25T18:48:18.830Z,36.60
2018-03-25T18:50:46.392Z,36.83
2018-03-25T18:53:15.279Z,37.47
2018-03-25T18:55:42.812Z,34.60
2018-03-25T18:58:10.331Z,36.43
2018-03-25T19:00:39.583Z,39.10
2018-03-25T19:03:07.103Z,36.00
2018-03-25T19:05:35.446Z,36.37
2018-03-25T19:08:03.120Z,34.93
2018-03-25T19:10:30.783Z,35.63
2018-03-25T19:12:58.455Z,35.73
2018-03-25T19:15:26.060Z,35.33
2018-03-25T19:17:53.580Z,35.60
2018-03-25T19:20:21.243Z,37.57
2018-03-25T19:22:48.850Z,35.83
2018-03-25T19:25:16.387Z,36.73
2018-03-25T19:27:44.757Z,35.93
2018-03-25T19:30:12.279Z,34.10
2018-03-25T19:32:39.823Z,36.23
2018-03-25T19:35:07.384Z,36.00
2018-03-25T19:37:35.729Z,37.03
2018-03-25T19:40:03.308Z,37.53
2018-03-25T19:42:30.972Z,35.17
2018-03-25T19:44:58.604Z,39.83
2018-03-25T19:47:26.264Z,39.50
2018-03-25T19:49:54.543Z,36.87
2018-03-25T19:52:22.135Z,36.33
2018-03-25T19:54:49.772Z,38.00
2018-03-25T19:57:17.321Z,35.77
2018-03-25T19:59:44.828Z,35.83
2018-03-25T20:02:12.371Z,34.13
2018-03-25T20:04:39.892Z,36.33
2018-03-25T20:07:08.197Z,35.20
2018-03-25T20:09:35.856Z,35.57
2018-03-25T20:12:03.444Z,34.07
2018-03-25T20:14:31.088Z,34.90
2018-03-25T20:16:59.639Z,36.33
2018-03-25T20:19:27.599Z,36.37
2018-03-25T20:21:55.111Z,33.07
2018-03-25T20:24:22.712Z,37.23
2018-03-25T20:26:50.285Z,38.07
2018-03-25T20:29:17.823Z,34.57
2018-03-25T20:31:45.339Z,34.73
2018-03-25T20:34:12.887Z,37.03
2018-03-25T20:36:41.180Z,34.30
2018-03-25T20:39:09.451Z,36.67
2018-03-25T20:41:37.204Z,38.63
2018-03-25T20:44:04.747Z,35.83
2018-03-25T20:46:32.357Z,35.17
2018-03-25T20:49:00.757Z,36.57
2018-03-25T20:51:28.550Z,36.73
2018-03-25T20:53:56.843Z,25.73
2018-03-25T20:56:25.155Z,40.27
2018-03-25T20:58:52.678Z,36.70
2018-03-25T21:01:20.296Z,35.27
2018-03-25T21:03:47.862Z,39.03
2018-03-25T21:06:15.380Z,37.53
2018-03-25T21:08:42.920Z,36.83
2018-03-25T21:11:10.434Z,41.47
2018-03-25T21:13:37.979Z,37.37
2018-03-25T21:16:07.286Z,37.20
2018-03-25T21:18:34.988Z,37.17
2018-03-25T21:21:02.550Z,36.37
2018-03-25T21:23:30.260Z,34.03
2018-03-25T21:25:57.780Z,33.60
2018-03-25T21:28:25.323Z,34.13
2018-03-25T21:30:52.855Z,36.23
2018-03-25T21:33:21.252Z,35.07
2018-03-25T21:35:50.178Z,34.33
2018-03-25T21:38:17.695Z,35.57
2018-03-25T21:40:45.228Z,33.80
2018-03-25T21:43:12.746Z,39.80
2018-03-25T21:45:40.280Z,39.63
2018-03-25T21:48:07.804Z,33.83
2018-03-25T21:50:35.364Z,35.77
2018-03-25T21:53:02.940Z,38.13
2018-03-25T21:55:31.292Z,36.40
2018-03-25T21:57:58.932Z,39.10
2018-03-25T22:00:26.454Z,36.13
2018-03-25T22:02:53.991Z,35.63
2018-03-25T22:05:22.463Z,36.97
2018-03-25T22:07:50.804Z,33.80
2018-03-25T22:10:18.335Z,35.50
2018-03-25T22:12:45.876Z,33.83
2018-03-25T22:15:14.160Z,34.00
2018-03-25T22:17:41.703Z,36.57
2018-03-25T22:20:09.223Z,36.60
2018-03-25T22:22:37.505Z,33.63
2018-03-25T22:25:05.134Z,38.03
2018-03-25T22:27:33.498Z,38.60
2018-03-25T22:30:01.083Z,37.37
2018-03-25T22:32:28.663Z,34.77
2018-03-25T22:34:56.207Z,37.73
2018-03-25T22:37:23.723Z,33.83
2018-03-25T22:39:51.360Z,37.27
2018-03-25T22:42:21.458Z,38.43
2018-03-25T22:44:49.811Z,36.80
2018-03-25T22:47:17.343Z,36.13
2018-03-25T22:49:44.864Z,36.30
2018-03-25T22:52:12.403Z,38.47
2018-03-25T22:54:39.919Z,37.77
2018-03-25T22:57:08.225Z,38.97
2018-03-25T22:59:35.856Z,38.10
2018-03-25T23:02:03.497Z,40.57
2018-03-25T23:04:31.100Z,37.10
2018-03-25T23:06:58.829Z,37.57
2018-03-25T23:09:26.352Z,40.57
2018-03-25T23:11:53.869Z,39.63
2018-03-25T23:14:21.483Z,41.13
2018-03-25T23:16:49.031Z,39.00
2018-03-25T23:19:16.584Z,40.37
2018-03-25T23:21:44.096Z,43.57
2018-03-25T23:24:12.233Z,41.93
2018-03-25T23:26:39.754Z,37.87
2018-03-25T23:29:07.431Z,39.07
2018-03-25T23:31:35.056Z,40.77
2018-03-25T23:34:02.780Z,37.70
2018-03-25T23:36:31.293Z,43.23
2018-03-25T23:38:58.900Z,40.27
2018-03-25T23:41:26.440Z,43.53
2018-03-25T23:43:55.408Z,40.07
2018-03-25T23:46:22.995Z,41.47
2018-03-25T23:48:50.654Z,38.30
2018-03-25T23:51:18.227Z,41.00
2018-03-25T23:53:45.747Z,40.37
2018-03-25T23:56:13.437Z,42.20
2018-03-25T23:58:40.992Z,43.37
